Date,TemperatureHighF,TemperatureAvgF,TemperatureLowF,DewpointHighF,DewpointAvgF,DewpointLowF,HumidityHigh,HumidityAvg,HumidityLow,PressureMaxIn,PressureMinIn,WindSpeedMaxMPH,WindSpeedAvgMPH,GustSpeedMaxMPH,PrecipitationSumIn
2013-1-1,78.4,69.0,62.5,66.0,61.9,57.5,91,78,61,30.23,30.05,9,2,11,0.00
2013-1-2,84.7,72.1,62.5,69.0,63.8,59.7,92,77,45,30.08,29.98,6,2,10,0.00
2013-1-3,80.0,69.2,60.8,69.0,65.1,59.0,97,87,68,30.15,30.03,10,3,14,0.00
2013-1-4,72.5,68.2,64.9,68.0,65.8,62.9,95,92,84,30.25,30.12,6,2,11,0.00
2013-1-5,81.2,71.2,64.1,71.0,66.2,62.0,96,85,71,30.27,30.18,10,3,12,0.10
2013-1-6,82.9,72.7,66.6,74.0,69.4,65.4,98,90,71,30.20,30.06,8,2,14,0.25
2013-1-7,77.0,70.5,66.4,69.2,67.4,65.0,97,90,76,30.19,30.10,11,4,12,0.14
2013-1-8,79.1,71.9,68.9,72.0,69.5,67.0,97,92,78,30.22,30.11,11,3,12,0.01
2013-1-9,80.4,73.6,69.8,73.0,71.0,68.0,95,92,78,30.30,30.19,13,6,13,0.02
2013-1-10,79.3,73.8,71.5,71.0,69.3,68.0,93,86,75,30.31,30.22,10,6,16,0.00
2013-1-11,78.8,73.6,71.4,70.2,69.2,68.8,92,86,74,30.28,30.17,10,5,12,0.00
2013-1-12,80.7,74.2,70.9,71.0,69.0,66.0,94,84,70,30.20,30.11,11,4,14,0.00
2013-1-13,83.0,75.2,72.1,69.0,66.5,65.0,83,75,59,30.16,30.08,11,6,15,0.00
2013-1-14,81.4,74.9,72.0,69.0,67.0,64.0,82,76,64,30.19,30.13,12,6,15,0.00
2013-1-15,83.5,75.5,72.6,70.0,67.6,65.0,84,77,63,30.15,30.06,13,5,14,0.00
2013-1-16,85.0,73.6,65.1,70.0,67.1,63.0,95,81,55,30.11,30.02,7,3,10,0.00
2013-1-17,84.6,70.9,57.7,70.0,63.8,50.0,94,79,53,30.09,29.92,10,4,17,0.00
2013-1-18,72.1,59.8,45.6,64.0,51.7,40.0,91,75,57,30.24,30.09,15,5,21,0.05
2013-1-19,75.6,68.7,65.0,68.1,65.0,61.8,96,88,74,30.24,30.12,10,4,22,0.50
2013-1-20,76.4,69.6,64.6,70.0,66.7,64.0,97,90,77,30.15,30.05,8,2,9,0.00
2013-1-21,80.7,71.0,63.9,71.0,67.0,63.0,95,87,71,30.08,29.98,7,2,10,0.26
2013-1-22,71.7,65.9,62.9,63.0,56.7,52.0,96,73,58,30.25,30.02,13,5,17,0.00
2013-1-23,73.0,63.5,55.2,58.0,52.9,48.0,84,69,57,30.33,30.23,7,3,11,0.00
2013-1-24,73.8,62.2,51.7,55.0,50.9,45.0,90,69,41,30.32,30.23,6,2,8,0.00
2013-1-25,78.1,65.2,54.7,59.0,55.4,50.0,90,72,37,30.30,30.19,7,2,9,0.00
2013-1-26,74.9,64.7,54.4,61.0,55.9,48.0,91,74,52,30.28,30.17,8,2,9,0.00
2013-1-27,80.4,68.5,56.1,67.0,62.2,55.0,96,81,61,30.31,30.22,10,3,12,0.00
2013-1-28,77.4,71.0,68.7,70.0,67.0,65.0,93,87,76,30.34,30.24,11,5,15,0.14
2013-1-29,79.5,72.1,69.2,71.0,68.6,67.0,95,89,73,30.25,30.13,8,4,12,0.10
2013-1-30,78.8,73.4,67.8,70.0,67.0,65.0,91,80,68,30.13,29.94,13,5,16,0.00
2013-1-31,70.8,63.3,54.0,68.0,53.0,38.0,96,72,44,30.20,29.92,13,4,15,0.08
2013-2-1,70.0,58.9,48.5,53.0,43.8,36.0,74,58,37,30.31,30.19,8,3,15,0.00
2013-2-2,74.8,62.6,50.8,56.0,50.9,40.0,85,67,51,30.28,30.13,6,2,11,0.00
2013-2-3,72.3,62.0,53.7,55.0,49.4,39.0,86,66,34,30.19,30.07,6,2,9,0.00
2013-2-4,76.7,61.0,47.6,53.0,44.7,34.0,84,58,34,30.13,30.03,5,2,9,0.00
2013-2-5,81.6,67.2,52.0,62.0,50.7,39.7,78,57,34,30.11,30.01,8,2,9,0.00
2013-2-6,80.4,70.3,60.4,69.0,63.3,58.0,93,79,67,30.12,30.02,13,4,14,0.00
2013-2-7,79.7,74.0,70.2,69.0,65.6,62.7,84,75,66,30.09,29.92,12,5,16,0.00
2013-2-8,83.4,72.0,65.1,66.0,64.1,62.0,93,77,53,30.06,29.89,8,3,11,0.00
2013-2-9,76.4,70.5,62.3,65.1,62.5,59.0,93,76,64,30.19,30.05,11,4,14,0.00
2013-2-10,75.3,70.8,68.5,63.0,60.9,59.0,77,71,61,30.28,30.17,18,8,19,0.00
2013-2-11,79.5,73.6,68.1,67.0,64.3,62.0,82,73,59,30.23,30.10,11,6,19,0.00
2013-2-12,86.5,73.8,66.6,71.0,66.9,62.0,91,80,44,30.12,29.96,10,4,12,0.00
2013-2-13,86.9,76.4,68.8,72.0,67.7,61.0,96,76,51,29.99,29.84,13,5,21,0.00
2013-2-14,73.7,66.7,61.2,69.0,63.0,59.0,97,88,73,30.05,29.93,15,3,15,1.02
2013-2-15,66.9,63.2,60.9,63.0,61.2,60.0,97,93,85,30.05,29.95,9,2,15,0.05
2013-2-16,70.5,62.0,50.6,61.0,52.2,39.0,97,73,40,30.07,29.89,12,4,22,0.01
2013-2-17,57.7,49.8,41.3,40.0,27.8,19.0,67,44,24,30.33,30.07,10,4,19,0.00
2013-2-18,68.8,57.6,44.5,54.0,42.4,27.0,73,57,48,30.35,30.23,16,4,19,0.00
2013-2-19,81.8,71.2,64.1,60.1,57.8,53.0,82,64,40,30.23,30.07,14,4,17,0.00
2013-2-20,80.9,68.4,59.8,66.1,62.4,56.8,96,82,60,30.13,30.03,5,3,9,0.00
2013-2-21,84.3,72.2,62.3,70.5,67.2,61.0,97,85,62,30.11,30.01,8,3,10,0.00
2013-2-22,80.0,74.1,70.3,72.0,70.2,68.0,93,87,76,30.11,30.02,10,4,14,0.00
2013-2-23,88.0,75.9,69.9,72.0,69.7,64.0,94,82,47,30.05,29.89,12,4,14,0.08
2013-2-24,89.3,74.2,68.0,73.0,69.4,66.9,97,86,52,29.98,29.90,8,3,13,0.00
2013-2-25,85.6,76.2,71.8,73.4,71.4,68.0,96,86,56,29.92,29.80,11,4,16,0.00
2013-2-26,85.6,78.1,70.9,73.0,69.7,66.0,93,77,54,29.87,29.76,15,6,26,0.00
2013-2-27,81.2,70.0,62.8,67.0,63.0,59.0,95,80,47,29.97,29.86,8,3,9,0.00
2013-2-28,77.4,64.2,54.9,61.0,51.2,43.0,90,66,36,30.01,29.88,8,3,13,0.00
2013-3-1,70.8,60.0,55.9,53.0,45.7,37.0,76,61,36,29.99,29.90,8,3,13,0.00
2013-3-2,60.9,54.5,47.2,44.0,37.9,33.0,71,55,38,30.03,29.95,9,3,15,0.00
2013-3-3,61.7,50.5,41.5,40.0,35.0,31.0,78,57,38,30.16,29.97,12,4,22,0.00
2013-3-4,63.5,52.9,39.8,49.0,37.6,29.0,80,59,33,30.24,30.13,10,3,12,0.00
2013-3-5,74.1,62.6,48.5,61.0,52.5,44.0,90,71,42,30.18,30.05,10,4,14,0.00
2013-3-6,73.1,62.9,50.2,63.0,44.7,22.0,93,59,18,30.12,29.95,13,5,20,0.01
2013-3-7,68.7,57.1,44.9,52.0,44.6,35.0,89,64,52,30.19,30.08,11,4,12,0.00
2013-3-8,69.4,60.7,49.0,55.0,51.2,47.0,93,73,50,30.23,30.14,9,4,16,0.00
2013-3-9,76.2,67.3,53.7,57.0,54.4,50.0,88,65,48,30.22,30.12,9,4,12,0.00
2013-3-10,77.5,70.3,64.5,61.6,58.9,54.8,80,68,56,30.18,30.09,8,4,12,0.00
2013-3-11,78.0,70.9,67.2,65.0,61.6,58.5,83,73,61,30.13,29.95,13,6,16,0.00
2013-3-12,76.7,71.3,64.6,70.0,65.1,61.0,90,80,69,30.00,29.89,14,5,18,0.01
2013-3-13,71.9,63.6,53.7,60.7,54.5,50.8,94,74,50,30.14,29.99,11,4,16,0.00
2013-3-14,66.4,58.0,50.3,54.0,47.0,41.0,84,68,46,30.23,30.11,15,5,19,0.00
2013-3-15,72.0,61.7,48.7,52.6,48.4,41.0,81,63,45,30.27,30.17,6,2,11,0.00
2013-3-16,77.2,61.3,50.1,59.0,51.8,46.0,93,74,34,30.21,30.08,9,3,13,0.00
2013-3-17,77.9,66.7,54.9,62.0,57.0,50.0,86,72,52,30.17,30.03,12,4,14,0.00
2013-3-18,77.9,71.2,66.4,69.0,64.8,61.0,92,80,65,30.08,29.91,10,4,17,0.04
2013-3-19,81.1,71.8,66.2,69.1,66.4,63.8,95,84,60,30.02,29.89,10,2,13,0.00
2013-3-20,80.4,72.2,65.6,70.0,65.6,59.0,95,81,53,29.97,29.79,10,3,22,0.00
2013-3-21,73.4,64.5,55.3,61.0,50.1,39.0,92,64,32,29.96,29.83,8,3,12,0.00
2013-3-22,77.9,65.5,51.4,66.0,54.5,45.8,89,69,44,30.03,29.91,12,4,15,0.02
2013-3-23,88.0,76.8,69.1,74.0,68.9,65.0,96,78,49,29.99,29.76,12,4,21,0.61
2013-3-24,90.3,76.3,67.9,73.0,68.7,66.0,94,79,46,29.88,29.64,22,6,32,0.58
2013-3-25,79.4,70.4,58.0,71.0,53.1,34.0,96,62,21,30.00,29.73,9,4,14,0.00
2013-3-26,68.2,57.7,48.6,42.6,33.2,27.0,64,42,22,30.22,30.00,10,4,17,0.00
2013-3-27,65.0,55.4,45.7,45.0,39.3,32.0,71,56,41,30.28,30.18,9,4,12,0.00
2013-3-28,70.6,60.3,46.3,49.0,44.9,40.0,87,59,37,30.29,30.20,10,4,13,0.00
2013-3-29,74.1,67.6,63.4,52.0,48.3,43.0,63,51,40,30.32,30.22,12,5,14,0.00
2013-3-30,76.1,68.1,55.5,56.0,53.5,51.0,87,61,44,30.27,30.16,11,5,16,0.00
2013-3-31,80.5,69.9,60.0,67.0,59.9,54.0,85,72,49,30.19,30.03,9,4,13,0.00
2013-4-1,88.9,75.4,65.4,70.0,63.3,59.0,93,70,37,30.05,29.92,9,3,14,0.00
2013-4-2,81.8,72.1,64.3,69.0,64.8,60.0,94,79,48,30.09,29.99,6,3,10,0.00
2013-4-3,81.8,74.5,71.0,71.0,69.3,66.4,92,84,69,30.08,29.99,12,6,13,0.08
2013-4-4,78.2,73.1,67.5,72.0,69.5,65.0,93,88,79,30.05,29.91,10,4,18,0.11
2013-4-5,78.1,70.0,64.8,71.0,65.7,61.0,93,86,73,29.95,29.79,10,4,17,0.18
2013-4-6,84.4,70.6,57.3,66.0,61.7,55.0,92,75,48,30.11,29.94,10,4,14,0.01
2013-4-7,85.3,75.6,69.7,66.0,63.8,61.0,80,68,50,30.16,30.05,8,4,12,0.00
2013-4-8,90.8,76.9,66.8,69.0,65.9,62.0,86,70,47,30.15,30.06,7,3,11,0.00
2013-4-9,84.5,75.6,72.3,70.0,67.7,65.0,86,77,59,30.18,30.07,11,6,13,0.00
2013-4-10,82.6,76.4,72.3,73.0,70.6,67.0,92,82,69,30.12,30.01,11,6,13,0.00
2013-4-11,83.8,77.7,73.7,73.0,72.2,71.0,92,83,68,30.03,29.88,10,6,15,0.00
2013-4-12,91.3,80.5,75.5,75.0,73.0,70.0,92,79,50,29.93,29.83,10,5,16,0.00
2013-4-13,90.5,77.9,73.4,76.0,72.0,70.0,93,82,59,29.98,29.89,7,3,11,0.26
2013-4-14,86.8,78.7,74.2,77.0,74.3,72.0,95,87,70,29.98,29.87,11,4,17,0.28
2013-4-15,88.7,75.6,66.9,77.0,70.8,65.7,96,86,68,30.07,29.93,9,2,17,0.76
2013-4-16,93.2,81.0,73.7,77.0,73.3,69.0,95,79,55,30.14,30.04,7,3,10,0.00
2013-4-17,94.1,80.2,73.0,71.0,68.9,67.0,84,70,45,30.14,30.05,6,2,9,0.00
2013-4-18,87.3,79.0,74.2,74.0,72.1,67.0,89,80,63,30.07,29.99,10,5,13,0.00
2013-4-19,85.7,78.7,76.6,76.0,73.8,72.8,89,85,69,30.05,29.94,14,6,18,0.03
2013-4-20,88.1,75.5,69.7,76.0,70.5,66.0,93,85,66,30.11,29.97,12,5,14,0.02
2013-4-21,83.9,75.4,68.7,74.2,70.7,66.0,94,85,69,30.11,30.00,12,4,16,0.03
2013-4-22,80.8,73.8,70.9,74.0,70.1,68.0,93,88,71,30.07,29.97,13,3,19,0.44
2013-4-23,83.8,76.8,71.2,70.0,66.9,62.0,91,72,56,30.11,29.98,11,6,15,0.00
2013-4-24,91.0,79.0,71.9,66.0,64.0,62.0,74,61,42,30.15,30.05,6,3,10,0.00
2013-4-25,93.0,81.3,73.6,66.0,65.1,63.0,74,60,40,30.20,30.09,12,4,13,0.00
2013-4-26,86.5,78.4,68.2,71.0,67.7,63.0,88,70,57,30.24,30.14,10,4,13,0.00
2013-4-27,85.6,77.9,72.9,69.0,67.2,66.0,85,70,56,30.22,30.11,11,6,14,0.01
2013-4-28,83.5,77.2,74.1,67.0,65.4,64.0,75,67,55,30.14,30.02,15,10,19,0.00
2013-4-29,84.5,78.6,74.7,71.0,68.2,65.0,82,71,56,30.05,29.93,13,6,18,0.00
2013-4-30,81.4,75.7,71.5,75.0,70.7,69.0,94,84,71,30.01,29.93,11,2,17,0.03
2013-5-1,84.4,75.1,69.4,73.0,70.5,66.7,95,86,65,30.02,29.93,9,3,13,0.62
2013-5-2,74.1,72.2,68.2,72.0,70.0,66.3,97,92,85,29.96,29.82,22,6,26,2.00
2013-5-3,90.1,77.0,69.5,73.0,70.4,68.0,94,81,53,29.84,29.66,16,5,22,0.36
2013-5-4,91.5,77.2,67.5,71.0,68.7,66.0,96,77,47,29.79,29.68,6,3,13,0.00
2013-5-5,86.2,75.2,66.2,69.9,57.9,43.0,94,62,22,29.93,29.74,8,3,14,0.00
2013-5-6,85.1,73.6,61.8,63.0,57.7,53.0,86,60,37,29.99,29.90,8,3,14,0.00
2013-5-7,86.1,72.7,58.9,59.1,56.0,54.0,88,59,35,30.05,29.96,8,3,13,0.00
2013-5-8,88.2,74.8,62.7,67.0,62.5,58.0,89,67,38,30.13,30.03,7,3,10,0.00
2013-5-9,88.9,77.4,66.8,73.0,66.9,60.4,89,71,56,30.16,30.08,8,2,10,0.00
2013-5-10,87.7,79.8,74.7,77.0,73.1,69.0,93,80,62,30.14,30.02,10,4,13,0.02
2013-5-11,93.2,78.3,71.3,77.0,68.4,-99.9,96,78,47,30.08,29.95,9,-7,23,1.45
2013-5-12,93.3,78.5,70.6,78.0,72.5,69.4,96,83,53,30.04,29.94,10,3,10,0.27
2013-5-13,82.4,75.2,69.2,72.0,67.4,61.0,93,78,60,30.11,29.99,11,4,15,0.00
2013-5-14,90.3,79.7,72.2,61.0,58.3,56.0,64,49,35,30.20,30.10,10,4,15,0.00
2013-5-15,91.3,79.8,72.9,65.0,61.6,57.0,70,55,40,30.21,30.11,13,4,13,0.00
2013-5-16,87.2,78.1,72.2,65.0,62.9,60.0,72,60,44,30.14,30.05,12,5,16,0.00
2013-5-17,90.4,80.2,71.4,71.6,68.9,65.0,83,69,52,30.10,30.02,14,5,15,0.00
2013-5-18,87.6,79.0,74.2,74.2,71.5,69.0,89,78,64,30.12,30.05,12,4,15,0.00
2013-5-19,87.9,79.7,74.8,73.0,71.1,70.0,86,75,59,30.11,30.02,12,5,18,0.00
2013-5-20,82.7,77.8,74.6,74.0,71.9,69.0,91,82,73,30.10,30.00,10,3,13,0.06
2013-5-21,86.4,77.1,71.6,75.0,71.3,68.0,92,83,62,30.04,29.95,16,5,17,0.11
2013-5-22,86.5,77.3,73.5,75.0,72.2,70.3,93,85,67,29.98,29.91,12,3,16,0.00
2013-5-23,96.0,83.1,71.9,76.0,73.3,70.0,95,74,52,30.00,29.91,8,2,9,0.00
2013-5-24,96.0,83.8,71.6,77.0,73.4,68.0,90,73,51,30.08,29.95,6,2,8,0.00
2013-5-25,94.1,83.3,75.1,75.0,67.6,63.0,85,61,37,30.19,30.06,8,3,13,0.00
2013-5-26,91.8,80.5,72.2,68.0,64.6,60.0,70,59,46,30.21,30.14,8,3,14,0.00
2013-5-27,86.7,79.8,74.5,71.0,68.1,62.0,80,68,59,30.18,30.11,15,6,18,0.00
2013-5-28,85.9,79.4,73.7,75.0,72.5,70.0,94,80,68,30.14,30.07,15,8,18,0.55
2013-5-29,85.3,79.3,75.6,76.0,74.2,72.0,93,84,72,30.13,30.05,16,9,22,0.22
2013-5-30,85.5,80.8,77.7,76.0,73.6,70.0,88,79,65,30.12,30.04,18,10,24,0.02
2013-5-31,86.4,80.9,77.6,75.0,73.2,70.0,85,77,67,30.10,30.04,19,9,23,0.00
2013-6-1,87.8,80.9,77.1,77.0,75.2,74.0,93,83,68,30.06,29.98,15,7,17,0.16
2013-6-2,90.4,81.6,76.3,78.0,75.2,73.0,94,81,62,30.01,29.91,8,4,13,0.09
2013-6-3,90.3,81.1,75.2,78.0,74.4,72.0,94,81,63,30.02,29.91,8,3,12,0.01
2013-6-4,87.7,79.8,75.2,77.0,73.4,69.0,92,81,56,30.05,29.95,7,1,12,0.02
2013-6-5,87.4,79.7,76.3,78.0,75.8,73.0,93,87,74,30.02,29.91,9,4,11,0.01
2013-6-6,80.8,76.0,73.0,77.0,74.3,71.0,96,94,88,29.93,29.75,16,6,21,2.41
2013-6-7,92.7,80.7,73.8,78.0,74.2,72.0,96,82,56,29.97,29.81,9,4,15,0.01
2013-6-8,88.1,78.3,74.3,78.0,74.2,72.0,94,87,70,30.11,29.96,7,2,11,0.03
2013-6-9,90.6,80.8,74.2,78.0,75.0,72.0,95,83,65,30.13,30.05,10,3,12,0.01
2013-6-10,91.3,80.9,76.4,78.0,76.1,74.0,93,86,65,30.11,30.03,8,3,11,0.00
2013-6-11,92.0,81.7,77.4,80.0,76.1,73.0,94,84,67,30.09,30.01,7,2,8,0.00
2013-6-12,96.6,83.5,76.6,81.0,76.5,71.0,95,80,60,30.08,30.03,7,2,9,0.00
2013-6-13,97.8,83.0,73.5,78.0,73.0,69.0,92,73,42,30.05,29.91,13,3,15,0.00
2013-6-14,99.2,82.1,74.8,77.0,72.9,69.0,94,76,38,29.96,29.85,8,3,14,0.00
2013-6-15,95.4,84.3,75.6,79.0,75.7,72.0,91,76,57,30.06,29.92,9,3,11,0.00
2013-6-16,94.0,84.4,77.9,79.0,77.1,75.0,92,79,61,30.09,30.04,9,4,13,0.00
2013-6-17,93.3,84.6,78.5,80.0,77.5,75.0,92,80,64,30.08,30.00,11,4,12,0.00
2013-6-18,94.2,84.9,78.5,79.0,76.7,75.0,91,77,57,30.07,29.97,7,4,14,0.00
2013-6-19,92.2,82.7,74.9,80.0,74.3,67.0,86,76,62,30.06,29.98,7,3,13,0.00
2013-6-20,93.8,81.7,76.0,79.0,74.5,70.0,91,80,58,30.10,30.02,6,2,8,0.01
2013-6-21,91.8,79.5,75.2,79.0,74.0,69.0,93,84,51,30.13,30.03,7,1,13,0.06
2013-6-22,94.3,85.0,76.7,79.0,75.9,74.0,92,75,57,30.13,30.05,5,2,9,0.00
2013-6-23,94.6,83.2,76.2,81.0,76.0,71.9,90,79,57,30.15,30.06,8,3,15,0.15
2013-6-24,94.8,83.5,77.4,79.0,75.6,71.0,89,78,58,30.19,30.10,9,4,15,0.00
2013-6-25,95.6,84.8,78.5,79.0,76.7,74.0,89,78,58,30.16,30.05,7,3,11,0.00
2013-6-26,89.8,81.1,77.4,79.0,76.4,74.0,93,86,69,30.09,30.02,9,3,17,0.24
2013-6-27,93.7,83.5,75.9,80.0,76.2,74.0,93,79,62,30.06,29.95,6,2,10,0.00
2013-6-28,95.6,81.2,73.0,78.0,73.8,70.0,94,79,48,29.99,29.84,7,3,13,0.99
2013-6-29,91.4,80.0,73.3,78.0,74.0,70.0,95,83,63,29.93,29.82,9,3,13,0.82
2013-6-30,89.0,77.5,72.7,79.0,74.3,71.0,97,90,68,29.94,29.84,11,3,17,1.68
2013-7-1,89.1,77.4,71.9,78.0,73.9,71.0,97,89,67,30.05,29.90,9,4,26,0.37
2013-7-2,86.4,77.2,72.3,78.0,73.8,71.0,96,90,73,30.11,29.99,6,2,10,0.01
2013-7-3,88.5,79.6,73.8,77.0,74.2,72.0,95,84,67,30.14,30.06,7,3,12,0.01
2013-7-4,87.0,78.9,73.5,77.0,74.0,71.0,96,85,69,30.17,30.09,14,4,18,0.56
2013-7-5,85.6,79.0,72.0,76.0,74.4,70.0,96,86,73,30.16,30.07,8,4,12,0.12
2013-7-6,89.5,81.5,75.1,78.0,74.8,72.6,93,81,66,30.14,30.06,13,3,16,0.01
2013-7-7,91.2,82.6,75.8,78.0,75.9,74.0,94,81,65,30.13,30.05,9,2,13,0.00
2013-7-8,95.0,84.7,77.0,79.0,76.8,75.0,93,78,59,30.16,30.09,5,2,6,0.00
2013-7-9,94.4,82.9,76.8,77.0,75.5,73.0,92,79,56,30.18,30.07,6,2,13,0.10
2013-7-10,91.9,82.8,76.2,76.4,74.3,71.0,88,76,56,30.10,30.00,8,3,13,0.00
2013-7-11,93.9,81.6,76.6,79.0,75.2,71.0,91,81,61,30.05,29.94,9,3,13,0.04
2013-7-12,93.7,80.5,74.3,78.0,73.7,70.0,92,80,58,29.97,29.90,7,2,10,0.92
2013-7-13,88.7,78.0,74.0,78.0,73.8,70.0,95,87,67,30.02,29.92,8,2,12,0.42
2013-7-14,86.0,76.2,72.3,77.0,72.8,71.0,95,89,70,30.10,29.99,10,2,17,0.18
2013-7-15,90.9,78.6,72.2,79.0,74.0,71.0,97,86,66,30.12,30.03,11,3,15,0.00
2013-7-16,88.4,78.8,74.9,77.1,74.0,71.0,93,85,69,30.17,30.08,11,5,20,0.26
2013-7-17,85.7,79.0,74.2,77.0,74.7,72.0,96,87,73,30.15,30.07,14,5,22,0.54
2013-7-18,87.9,80.1,73.3,77.0,74.0,72.0,94,82,65,30.14,30.06,10,4,13,0.02
2013-7-19,89.6,80.7,72.9,80.0,75.7,71.0,95,85,70,30.14,30.05,9,2,11,0.00
2013-7-20,92.0,80.1,76.2,81.0,76.1,71.0,96,88,70,30.12,30.04,7,2,8,0.06
2013-7-21,92.0,80.4,72.5,80.0,74.6,70.0,94,83,66,30.14,30.05,9,3,18,0.26
2013-7-22,92.9,81.8,72.6,79.0,74.4,69.0,95,79,60,30.14,30.07,8,3,11,0.00
2013-7-23,99.3,84.4,76.4,78.0,74.8,72.0,92,75,41,30.10,29.96,6,2,11,0.00
2013-7-24,95.6,81.4,74.3,77.0,74.2,72.0,94,80,49,30.02,29.90,10,3,22,0.53
2013-7-25,88.0,80.4,76.3,78.0,75.2,73.0,93,84,70,30.00,29.89,9,3,14,0.45
2013-7-26,92.6,82.0,74.8,79.0,76.1,73.0,96,83,64,30.00,29.95,7,2,12,0.17
2013-7-27,95.0,83.6,75.9,80.0,76.7,74.0,95,81,61,29.99,29.91,8,2,10,0.00
2013-7-28,96.4,81.5,74.6,79.0,75.3,70.9,94,82,58,30.07,29.94,10,2,13,0.25
2013-7-29,95.7,83.7,75.1,81.2,76.7,72.0,91,80,61,30.16,30.03,6,2,9,0.00
2013-7-30,93.3,85.2,78.5,82.0,78.3,76.0,94,80,62,30.18,30.10,6,2,8,0.00
2013-7-31,94.7,85.4,80.2,82.0,78.2,76.0,93,80,60,30.13,30.02,8,2,11,0.00
2013-8-1,97.1,85.6,78.5,79.0,76.3,75.0,90,75,52,30.07,29.96,8,3,10,0.00
2013-8-2,93.4,84.3,77.5,79.0,76.0,74.0,90,77,60,30.03,29.94,10,2,13,0.00
2013-8-3,82.7,78.8,75.6,78.6,75.1,72.0,93,88,76,30.12,30.01,10,3,13,0.02
2013-8-4,96.5,82.7,75.9,80.0,76.3,72.0,96,82,53,30.09,29.98,10,2,18,0.01
2013-8-5,97.8,82.7,74.9,81.0,76.8,73.0,94,83,58,30.03,29.92,7,3,11,0.25
2013-8-6,97.2,83.5,74.5,81.0,77.4,73.0,96,83,59,29.98,29.90,4,2,6,0.02
2013-8-7,87.8,83.3,80.7,79.0,78.0,76.0,92,84,73,29.99,29.91,19,7,24,0.00
2013-8-8,85.0,83.2,81.2,79.0,77.7,76.0,88,83,79,30.04,29.95,15,9,18,0.00
2013-8-9,85.8,82.6,78.8,79.0,76.7,73.0,88,82,74,30.08,29.98,18,8,25,0.02
2013-8-10,87.7,82.4,79.8,80.0,78.2,76.0,93,87,77,30.14,30.05,10,5,13,0.00
2013-8-11,92.5,84.1,80.3,80.0,78.1,76.0,93,83,63,30.15,30.08,8,3,9,0.00
2013-8-12,95.7,85.4,79.4,78.0,77.0,76.0,90,77,57,30.12,30.02,10,3,12,0.00
2013-8-13,86.7,83.3,80.3,79.0,77.6,76.0,89,83,76,30.07,29.95,14,7,17,0.00
2013-8-14,92.3,82.3,78.3,78.0,76.2,75.0,88,82,59,30.02,29.92,14,6,18,0.00
2013-8-15,82.1,80.4,77.9,78.0,76.5,75.0,92,87,81,30.05,29.95,13,5,14,0.01
2013-8-16,89.5,81.1,77.4,79.0,77.3,75.0,94,88,71,30.06,29.98,12,4,13,0.01
2013-8-17,85.1,82.1,79.2,80.0,79.0,78.0,96,90,84,30.09,30.01,11,5,14,0.00
2013-8-18,88.0,82.3,77.6,81.0,78.5,76.0,94,88,79,30.10,30.02,13,6,23,0.21
2013-8-19,90.0,83.3,79.7,80.2,78.7,75.8,94,86,72,30.09,29.97,15,5,16,0.00
2013-8-20,91.2,83.7,79.4,80.0,78.2,75.0,92,83,70,30.09,30.00,14,5,24,0.49
2013-8-21,91.3,82.9,78.9,82.0,78.2,74.0,92,86,72,30.11,30.02,19,5,28,0.17
2013-8-22,91.2,84.5,79.1,82.0,78.9,75.0,93,83,69,30.09,29.98,14,4,19,0.01
2013-8-23,93.2,83.4,79.7,81.0,78.1,74.0,91,84,66,30.02,29.95,16,6,22,0.01
2013-8-24,92.8,84.0,78.9,80.0,78.1,76.0,93,83,67,30.09,29.99,17,4,24,0.01
2013-8-25,89.2,81.9,78.9,78.0,76.5,74.0,93,84,64,30.16,30.05,12,4,16,0.01
2013-8-26,95.1,83.8,77.0,78.0,76.4,75.0,95,79,56,30.13,30.01,12,4,15,0.00
2013-8-27,91.8,82.0,74.2,76.0,74.0,71.0,94,78,57,30.05,29.99,8,3,23,0.66
2013-8-28,94.1,83.8,79.5,77.0,74.5,69.0,82,74,55,30.05,29.97,9,3,13,0.00
2013-8-29,93.7,83.8,75.6,78.0,75.5,72.8,92,77,59,30.05,29.94,11,3,20,0.13
2013-8-30,91.7,83.4,77.3,79.0,76.2,70.0,93,79,60,30.00,29.91,11,4,14,0.00
2013-8-31,91.7,81.9,76.4,80.0,75.3,70.0,90,80,60,29.99,29.90,19,5,22,0.07
2013-9-1,93.8,80.7,76.2,79.0,73.9,71.0,90,80,57,30.00,29.93,14,3,17,0.01
2013-9-2,92.8,79.2,72.2,79.0,73.9,70.0,95,84,59,30.03,29.91,14,3,33,0.98
2013-9-3,92.6,81.4,73.4,78.0,75.3,72.0,97,83,62,30.03,29.94,10,3,12,0.01
2013-9-4,94.7,84.2,78.3,81.0,77.8,74.9,92,82,62,30.08,29.97,6,2,8,0.00
2013-9-5,94.9,86.2,82.4,80.0,78.6,77.0,87,78,62,30.09,30.01,14,3,17,0.00
2013-9-6,94.9,85.1,81.4,80.0,77.5,75.0,87,78,58,30.05,29.95,10,3,13,0.01
2013-9-7,88.0,82.3,76.1,78.0,75.7,73.0,91,80,67,30.01,29.91,11,4,14,0.00
2013-9-8,90.6,81.4,74.8,78.0,75.2,72.0,96,82,64,29.96,29.87,9,3,16,0.01
2013-9-9,93.6,84.3,77.7,77.0,75.2,70.0,90,75,58,30.01,29.91,13,4,28,0.00
2013-9-10,91.1,84.1,79.1,79.0,75.3,72.0,85,75,61,30.07,29.98,18,6,32,0.10
2013-9-11,87.7,82.8,79.7,77.0,75.5,72.0,84,79,69,30.07,30.00,17,4,23,0.00
2013-9-12,90.5,80.0,74.8,77.0,74.6,72.0,92,84,57,30.02,29.90,15,3,35,0.00
2013-9-13,92.0,78.8,73.8,78.0,73.8,71.5,96,86,62,29.92,29.81,13,4,14,0.00
2013-9-14,90.6,82.9,77.1,79.0,76.6,74.0,92,81,68,29.98,29.83,14,4,19,0.02
2013-9-15,87.3,82.3,75.1,79.3,76.9,71.0,93,84,73,30.07,29.95,28,6,31,0.91
2013-9-16,88.4,80.9,75.3,80.0,75.9,72.0,93,84,74,30.07,29.98,29,6,38,0.15
2013-9-17,89.5,80.3,74.9,79.0,75.4,72.0,93,85,67,30.06,29.95,16,6,25,0.79
2013-9-18,89.3,82.1,78.3,79.0,76.3,74.0,91,82,68,30.02,29.94,15,4,19,0.18
2013-9-19,87.8,81.6,77.8,78.0,75.3,71.0,91,81,69,30.04,29.95,9,5,15,0.16
2013-9-20,88.9,82.6,79.1,72.0,70.3,67.0,75,67,50,30.02,29.91,8,4,14,0.00
2013-9-21,86.7,81.8,77.2,73.0,71.5,69.0,86,71,61,29.93,29.78,11,4,16,0.00
2013-9-22,92.6,83.5,75.2,76.0,73.5,71.0,91,73,50,29.86,29.75,13,4,21,0.00
2013-9-23,85.1,79.1,75.4,78.0,75.6,74.0,96,89,74,29.98,29.85,15,4,25,2.47
2013-9-24,87.1,78.9,74.7,81.0,75.6,71.0,96,89,73,29.96,29.85,12,3,21,0.14
2013-9-25,86.8,79.0,73.6,76.0,72.0,69.0,94,80,58,29.87,29.78,25,7,32,0.00
2013-9-26,91.3,81.4,75.0,79.0,75.3,73.0,95,82,59,29.84,29.76,20,7,24,0.00
2013-9-27,84.2,77.8,71.4,76.0,73.1,70.0,97,86,71,29.94,29.82,14,6,20,0.11
2013-9-28,86.7,79.8,73.4,77.0,72.8,70.0,96,80,63,29.98,29.89,11,4,14,0.14
2013-9-29,88.8,81.3,73.7,73.0,71.5,70.0,90,73,57,29.98,29.90,6,3,10,0.00
2013-9-30,87.8,80.3,73.0,75.0,72.6,70.5,94,78,63,30.02,29.91,10,3,14,0.00
2013-10-1,89.9,83.5,80.4,75.0,72.7,71.0,77,70,60,30.06,29.97,11,5,15,0.00
2013-10-2,88.1,82.6,79.2,74.3,72.6,70.0,80,72,61,30.05,29.99,8,3,12,0.00
2013-10-3,87.9,82.3,79.1,75.0,72.5,70.0,79,72,64,30.07,29.98,7,3,10,0.00
2013-10-4,90.0,82.9,80.0,74.0,72.2,71.0,80,70,58,30.08,30.00,8,2,11,0.00
2013-10-5,90.1,83.2,79.3,76.0,73.6,71.0,85,73,58,30.04,29.95,9,3,13,0.01
2013-10-6,87.0,82.8,80.9,76.0,74.3,73.0,82,75,68,29.97,29.88,15,8,21,0.00
2013-10-7,89.6,78.5,74.2,76.0,73.1,68.0,94,84,49,29.89,29.80,14,4,29,0.39
2013-10-8,91.0,80.4,74.1,76.0,72.5,68.0,97,79,49,29.91,29.81,18,4,22,0.01
2013-10-9,82.9,78.1,73.9,75.0,73.3,71.0,96,85,76,30.00,29.88,19,8,24,0.58
2013-10-10,82.2,76.9,69.3,74.0,70.1,68.0,95,80,67,30.04,29.96,16,7,18,0.00
2013-10-11,85.6,79.8,76.2,69.0,67.0,65.0,76,66,52,30.04,29.95,9,3,11,0.00
2013-10-12,87.3,79.4,70.5,71.0,68.5,66.0,90,70,55,30.04,29.95,9,3,10,0.00
2013-10-13,83.4,78.5,70.7,69.0,66.8,63.0,87,68,52,30.07,29.98,11,4,16,0.00
2013-10-14,82.7,77.9,71.2,73.0,70.0,66.0,93,77,65,30.02,29.92,13,6,18,0.00
2013-10-15,85.7,76.4,70.0,74.0,71.4,69.0,97,85,64,29.97,29.88,8,3,11,0.00
2013-10-16,84.4,78.1,72.1,75.0,72.6,70.0,94,83,71,29.96,29.89,8,3,12,0.00
2013-10-17,86.9,79.1,72.5,75.0,72.7,70.0,93,81,66,29.98,29.90,11,3,14,0.00
2013-10-18,87.0,80.6,73.3,76.0,73.3,70.8,93,79,69,30.00,29.91,15,6,18,0.00
2013-10-19,85.1,81.1,75.7,77.0,74.5,72.0,91,80,70,29.97,29.87,17,9,21,0.00
2013-10-20,86.4,80.7,76.1,79.0,75.8,73.0,94,85,72,29.96,29.87,11,3,16,0.04
2013-10-21,86.3,81.1,76.6,78.0,75.9,73.0,92,84,72,30.00,29.91,15,6,18,0.00
2013-10-22,92.5,83.7,78.3,79.0,74.7,70.0,91,76,48,29.96,29.81,14,4,23,0.00
2013-10-23,80.9,77.3,74.5,74.0,70.6,66.0,94,80,66,29.97,29.79,14,5,18,0.00
2013-10-24,77.1,74.5,68.9,66.0,63.0,58.0,78,68,59,30.12,29.96,16,8,20,0.00
2013-10-25,78.8,74.1,67.5,68.0,63.8,60.0,88,71,61,30.19,30.10,15,7,20,0.00
2013-10-26,78.5,75.0,73.2,64.0,60.6,55.0,73,62,51,30.17,30.08,14,6,21,0.00
2013-10-27,77.1,72.1,63.6,67.0,62.5,59.0,92,73,56,30.11,30.05,11,4,14,0.00
2013-10-28,85.5,75.5,66.5,70.0,66.8,62.8,90,75,53,30.16,30.07,13,4,16,0.00
2013-10-29,85.4,78.7,76.6,71.0,68.4,65.0,81,71,57,30.20,30.10,17,5,17,0.00
2013-10-30,85.1,80.2,77.3,70.3,69.1,67.0,76,69,60,30.21,30.10,11,5,23,0.00
2013-10-31,80.7,79.3,78.0,74.0,70.4,67.0,84,74,68,30.13,30.01,19,12,25,0.00
2013-11-1,87.2,79.7,74.3,76.0,73.5,70.0,93,82,57,30.02,29.87,17,5,20,0.05
2013-11-2,87.4,75.6,68.8,73.0,68.9,63.0,97,81,53,29.94,29.82,13,4,22,0.00
2013-11-3,77.2,72.3,67.1,64.8,59.6,52.8,84,66,46,30.07,29.91,17,8,24,0.00
2013-11-4,79.9,76.1,72.7,68.0,62.8,53.0,83,64,48,30.12,30.04,22,8,25,0.00
2013-11-5,83.0,77.5,73.8,73.0,70.1,68.0,88,78,69,30.12,30.05,26,9,26,0.01
2013-11-6,83.2,78.1,73.6,72.0,69.6,67.0,93,76,65,30.09,30.02,9,4,15,0.05
2013-11-7,78.1,75.0,70.8,74.0,71.0,66.0,97,87,74,30.03,29.94,12,5,17,0.00
2013-11-8,78.0,75.1,71.8,72.0,69.9,69.0,91,84,79,30.08,29.96,19,9,23,0.00
2013-11-9,81.0,76.6,74.5,71.0,69.8,68.0,84,79,71,30.16,30.06,12,6,18,0.00
2013-11-10,83.1,76.8,74.7,74.0,70.7,69.0,88,81,70,30.15,30.07,13,4,15,0.00
2013-11-11,81.6,76.3,70.9,73.0,70.9,69.0,95,84,71,30.15,30.07,5,2,8,0.01
2013-11-12,78.4,74.5,70.1,73.0,69.6,66.0,95,85,77,30.09,29.99,13,5,18,0.00
2013-11-13,73.2,70.0,67.9,67.0,60.4,52.0,84,72,58,30.27,30.02,29,13,34,0.00
2013-11-14,74.8,71.6,67.7,64.0,59.0,54.0,75,65,56,30.28,30.16,14,8,20,0.00
2013-11-15,76.2,74.3,72.0,70.0,66.6,62.0,85,77,67,30.18,30.06,22,9,30,0.06
2013-11-16,78.7,75.0,71.4,71.0,69.8,67.0,92,84,76,30.12,30.02,20,7,23,0.16
2013-11-17,78.6,76.9,74.0,73.0,72.1,70.0,92,85,79,30.09,30.00,18,10,19,0.00
2013-11-18,85.6,76.8,71.2,75.0,72.2,69.0,95,86,63,30.02,29.92,9,3,11,0.00
2013-11-19,78.1,74.3,70.9,73.0,70.2,68.0,95,87,75,29.95,29.87,12,5,15,0.03
2013-11-20,78.0,75.1,72.9,73.0,71.9,70.0,95,90,82,30.08,29.93,25,8,28,0.89
2013-11-21,77.5,75.7,72.5,74.0,72.2,71.0,97,88,81,30.16,30.06,25,10,34,3.80
2013-11-22,81.0,77.2,75.1,72.0,69.3,66.0,85,77,68,30.18,30.10,13,6,18,0.00
2013-11-23,81.6,76.8,73.8,69.0,67.7,66.0,81,73,62,30.11,30.00,7,2,13,0.00
2013-11-24,75.3,70.9,67.3,69.0,65.8,61.0,95,84,73,30.20,30.00,25,8,28,0.02
2013-11-25,74.6,71.8,69.8,69.0,62.9,59.0,88,74,63,30.23,30.07,26,9,35,0.02
2013-11-26,79.8,75.9,73.6,74.0,71.9,67.0,92,87,81,30.06,29.79,33,17,38,0.02
2013-11-27,75.7,69.0,52.2,74.0,61.8,47.0,94,79,56,30.14,29.74,28,10,39,0.02
2013-11-28,70.7,58.9,43.5,60.0,50.8,40.0,86,75,58,30.28,30.14,18,7,23,0.00
2013-11-29,75.7,71.0,59.9,64.0,60.9,55.0,88,71,62,30.30,30.23,12,5,17,0.01
2013-11-30,76.7,71.7,63.5,68.0,65.1,61.0,94,80,66,30.24,30.14,14,5,17,0.18
2013-12-1,72.3,68.9,65.8,69.0,66.9,65.0,96,93,85,30.14,29.95,17,5,24,1.52
2013-12-2,70.4,65.8,62.7,65.0,63.2,60.0,98,91,76,29.95,29.81,12,3,14,0.01
2013-12-3,74.8,68.3,63.6,66.0,62.7,58.0,93,82,67,30.00,29.90,10,3,15,0.00
2013-12-4,82.7,72.4,65.0,71.0,66.5,62.0,92,82,52,30.09,29.99,8,3,12,0.00
2013-12-5,77.6,73.1,68.0,72.0,68.8,64.6,93,86,80,30.18,30.09,15,5,16,0.00
2013-12-6,77.4,74.1,71.2,73.0,70.2,68.0,94,87,82,30.20,30.11,16,6,19,0.02
2013-12-7,79.4,74.3,69.0,71.0,69.3,66.0,93,85,70,30.24,30.16,13,3,17,0.00
2013-12-8,78.2,77.0,76.0,72.0,70.1,67.0,84,79,73,30.23,30.13,21,14,23,0.00
2013-12-9,80.2,76.0,71.1,73.0,69.9,67.0,93,81,71,30.20,30.11,17,7,22,0.05
2013-12-10,86.5,75.9,69.1,73.0,68.6,64.0,92,79,48,30.17,30.08,10,3,13,0.00
2013-12-11,83.5,77.2,72.7,74.0,71.6,70.0,94,83,71,30.22,30.14,13,3,17,0.00
2013-12-12,72.6,69.5,67.6,71.0,63.3,56.0,95,81,61,30.26,30.15,21,9,27,0.00
2013-12-13,75.5,71.6,68.9,65.0,60.1,56.0,76,67,55,30.24,30.12,25,7,28,0.00
2013-12-14,77.5,74.9,73.1,73.0,70.2,65.0,90,85,76,30.12,29.97,26,15,29,0.02
2013-12-15,76.1,71.0,66.7,74.0,68.2,60.0,96,91,77,30.08,29.92,14,4,21,0.12
2013-12-16,67.0,62.8,55.7,60.0,57.8,53.0,91,84,72,30.19,30.07,18,7,18,0.01
2013-12-17,76.5,65.0,55.4,63.0,59.0,53.0,96,82,51,30.21,30.12,12,4,15,0.00
2013-12-18,68.5,63.5,54.7,61.0,54.3,48.0,94,73,50,30.26,30.17,16,7,19,0.00
2013-12-19,75.7,68.2,54.8,62.0,58.2,52.0,92,71,58,30.27,30.18,16,6,19,0.00
2013-12-20,75.6,74.0,72.7,70.0,65.5,60.0,86,75,65,30.22,30.13,17,10,21,0.00
2013-12-21,76.4,74.8,73.4,73.0,72.0,70.0,94,90,87,30.16,30.07,17,10,19,0.00
2013-12-22,78.7,75.8,73.5,73.0,72.6,70.0,94,89,80,30.16,30.09,15,8,25,0.00
2013-12-23,81.5,75.6,72.8,74.0,71.9,68.0,94,88,76,30.18,30.10,21,6,25,0.00
2013-12-24,74.1,68.4,64.1,71.0,63.6,55.0,97,85,70,30.20,30.11,24,8,29,0.06
2013-12-25,75.7,71.1,68.6,63.0,60.6,58.0,75,69,60,30.21,30.14,10,5,18,0.00
2013-12-26,74.7,71.6,69.7,70.0,67.3,62.0,94,86,74,30.20,30.09,14,5,18,0.00
2013-12-27,78.7,72.8,68.9,72.0,69.2,67.4,95,89,78,30.22,30.13,13,4,19,0.00
2013-12-28,75.4,74.0,72.4,71.0,69.8,68.6,91,87,82,30.20,30.03,24,11,27,0.10
2013-12-29,82.0,75.7,72.9,75.0,72.1,70.0,95,88,74,30.04,29.89,25,7,26,0.24
2013-12-30,72.9,68.0,64.3,70.4,64.1,53.0,94,88,61,30.17,29.98,14,6,17,0.00
2013-12-31,72.5,69.9,68.3,64.1,62.1,59.0,81,76,69,30.28,30.14,15,7,20,0.00
2014-1-1,72.9,71.1,68.1,71.0,68.0,63.6,98,90,76,30.23,30.05,9,4,16,0.24
2014-1-2,83.1,73.5,64.7,72.0,67.7,64.0,99,83,61,30.04,29.83,12,5,28,0.02